Time;durP1;ratioP1;P1;durP2;ratioP2;P2;SDS_P1;SDS_P2;PMS_P1;PMS_P2;Temp;Humidity;BMP_temperature;BMP_pressure;BME280_temperature;BME280_humidity;BME280_pressure;Samples;Min_cycle;Max_cycle;Signal;HPM_P1;HPM_P2
2023/05/22 00:01:06;;;;;;;13.73;12.43;;;18.20;99.90;;;;;;5015545;28;20164;-75
2023/05/22 00:03:32;;;;;;;17.40;12.93;;;18.10;99.90;;;;;;5016066;28;20188;-75
2023/05/22 00:05:59;;;;;;;12.80;11.70;;;18.10;99.90;;;;;;5015885;28;20442;-75
2023/05/22 00:08:26;;;;;;;16.13;14.83;;;18.20;99.90;;;;;;5015733;28;20242;-75
2023/05/22 00:10:52;;;;;;;14.67;12.50;;;18.20;99.90;;;;;;5015251;28;20514;-74
2023/05/22 00:13:17;;;;;;;13.73;12.33;;;18.10;99.90;;;;;;5015154;28;20419;-75
2023/05/22 00:15:43;;;;;;;16.03;14.53;;;17.90;99.90;;;;;;5015529;28;20168;-75
2023/05/22 00:18:08;;;;;;;15.33;13.93;;;17.90;99.90;;;;;;5015252;28;20613;-75
2023/05/22 00:20:37;;;;;;;16.13;14.60;;;17.90;99.90;;;;;;5015121;28;20777;-75
2023/05/22 00:23:04;;;;;;;17.10;15.60;;;17.90;99.90;;;;;;5015409;28;20172;-75
2023/05/22 00:25:29;;;;;;;15.73;14.33;;;17.80;99.90;;;;;;5015015;28;20411;-75
2023/05/22 00:27:55;;;;;;;17.63;16.03;;;17.80;99.90;;;;;;5015252;28;20415;-75
2023/05/22 00:30:20;;;;;;;15.80;14.10;;;17.80;99.90;;;;;;5014875;28;20200;-75
2023/05/22 00:32:46;;;;;;;14.77;13.47;;;17.80;99.90;;;;;;5011116;28;20549;-75
2023/05/22 00:35:12;;;;;;;14.90;13.50;;;17.80;99.90;;;;;;4978207;28;20180;-74
2023/05/22 00:37:37;;;;;;;16.87;15.27;;;17.80;99.90;;;;;;4995732;28;20283;-75
2023/05/22 00:40:04;;;;;;;15.73;13.90;;;17.80;99.90;;;;;;4995505;28;20188;-75
2023/05/22 00:42:30;;;;;;;13.87;12.67;;;17.70;99.90;;;;;;4995430;28;20164;-75
2023/05/22 00:44:55;;;;;;;15.87;14.27;;;17.70;99.90;;;;;;5012736;28;20460;-75
2023/05/22 00:47:22;;;;;;;16.57;15.07;;;17.70;99.90;;;;;;5014785;28;20164;-75
2023/05/22 00:49:48;;;;;;;16.97;15.37;;;17.50;99.90;;;;;;5015340;28;20604;-75
2023/05/22 00:52:16;;;;;;;17.17;15.43;;;17.60;99.90;;;;;;5014748;28;20399;-76
2023/05/22 00:54:42;;;;;;;15.90;14.50;;;17.60;99.90;;;;;;5013801;28;20168;-75
2023/05/22 00:57:08;;;;;;;17.23;15.70;;;17.60;99.90;;;;;;5014559;28;20874;-76
2023/05/22 00:59:34;;;;;;;16.80;15.40;;;17.50;99.90;;;;;;5014190;28;20457;-75
2023/05/22 01:02:00;;;;;;;15.30;13.87;;;17.40;99.90;;;;;;5014521;28;20160;-75
2023/05/22 01:04:26;;;;;;;16.30;14.87;;;17.40;99.90;;;;;;5014659;28;20436;-75
2023/05/22 01:06:52;;;;;;;18.10;16.50;;;17.30;99.90;;;;;;5014800;28;20496;-75
2023/05/22 01:09:18;;;;;;;15.73;14.30;;;17.30;99.90;;;;;;5014018;28;20200;-75
2023/05/22 01:12:33;;;;;;;15.63;14.20;;;17.20;99.90;;;;;;5014299;28;20425;-75
2023/05/22 01:15:05;;;;;;;15.70;14.10;;;17.10;99.90;;;;;;5013862;28;20644;-75
2023/05/22 01:18:09;;;;;;;15.30;13.90;;;17.10;99.90;;;;;;5014238;28;20477;-75
2023/05/22 01:20:51;;;;;;;16.37;14.87;;;17.20;99.90;;;;;;4996455;28;20430;-75
2023/05/22 01:23:56;;;;;;;16.17;14.77;;;17.20;99.90;;;;;;5013710;28;20897;-75
2023/05/22 01:26:29;;;;;;;18.53;16.60;;;17.20;99.90;;;;;;4996073;28;20831;-75
2023/05/22 01:29:13;;;;;;;16.83;15.20;;;17.10;99.90;;;;;;5013430;28;20477;-75
2023/05/22 01:31:41;;;;;;;16.67;14.97;;;17.10;99.90;;;;;;5013881;28;20813;-74
2023/05/22 01:34:11;;;;;;;16.47;14.87;;;17.10;99.90;;;;;;5013703;28;20414;-75
2023/05/22 01:36:37;;;;;;;15.70;14.30;;;17.10;99.90;;;;;;5013392;28;20504;-74
2023/05/22 01:39:05;;;;;;;13.83;12.63;;;17.20;99.90;;;;;;4995815;28;20431;-75
2023/05/22 01:41:32;;;;;;;15.50;14.13;;;17.20;99.90;;;;;;4995688;28;20407;-75
2023/05/22 01:43:59;;;;;;;15.97;14.50;;;17.20;99.90;;;;;;5013352;28;20454;-75
2023/05/22 01:46:29;;;;;;;17.93;16.33;;;17.20;99.90;;;;;;5013455;28;20761;-75
2023/05/22 01:48:55;;;;;;;16.63;15.03;;;17.10;99.90;;;;;;5013543;28;20948;-75
2023/05/22 01:51:35;;;;;;;16.90;15.20;;;17.00;99.90;;;;;;5013781;28;20434;-75
2023/05/22 01:54:21;;;;;;;17.33;15.83;;;16.90;99.90;;;;;;5013713;28;20524;-76
2023/05/22 01:57:02;;;;;;;16.63;15.03;;;16.80;99.90;;;;;;4995856;28;20438;-75
2023/05/22 01:59:38;;;;;;;14.47;13.17;;;16.80;99.90;;;;;;4993999;28;20446;-75
2023/05/22 02:02:06;;;;;;;17.10;15.50;;;16.70;99.90;;;;;;5013224;28;20435;-75
2023/05/22 02:04:37;;;;;;;17.97;16.47;;;16.70;99.90;;;;;;5013257;28;20869;-75
2023/05/22 02:07:04;;;;;;;15.67;14.20;;;16.80;99.90;;;;;;4995512;28;20464;-75
2023/05/22 02:09:30;;;;;;;16.83;15.33;;;16.90;99.90;;;;;;5012816;28;20434;-76
2023/05/22 02:11:58;;;;;;;16.67;15.10;;;16.90;99.90;;;;;;5012959;28;20422;-75
2023/05/22 02:14:24;;;;;;;18.30;16.00;;;16.90;99.90;;;;;;5012462;28;20859;-75
2023/05/22 02:16:50;;;;;;;18.17;16.53;;;16.90;99.90;;;;;;5013044;28;20972;-75
2023/05/22 02:19:16;;;;;;;16.60;15.10;;;16.90;99.90;;;;;;5012750;28;20445;-74
2023/05/22 02:21:42;;;;;;;17.60;15.90;;;16.80;99.90;;;;;;5013063;28;20938;-75
2023/05/22 02:24:08;;;;;;;17.53;15.93;;;16.80;99.90;;;;;;4995081;28;20257;-75
2023/05/22 02:26:34;;;;;;;18.23;16.53;;;16.80;99.90;;;;;;5009585;28;20422;-75
2023/05/22 02:28:59;;;;;;;18.20;16.30;;;16.80;99.90;;;;;;5012144;28;20464;-75
2023/05/22 02:31:25;;;;;;;15.30;13.90;;;16.80;99.90;;;;;;5012955;28;20159;-74
2023/05/22 02:33:51;;;;;;;17.23;15.63;;;16.80;99.90;;;;;;5013024;28;20179;-75
2023/05/22 02:36:16;;;;;;;17.20;15.60;;;16.70;99.90;;;;;;5012553;28;20173;-75
2023/05/22 02:38:42;;;;;;;16.27;14.77;;;16.70;99.90;;;;;;4994997;28;20171;-75
2023/05/22 02:41:07;;;;;;;15.20;13.90;;;16.80;99.90;;;;;;5012834;28;20243;-75
2023/05/22 02:43:33;;;;;;;17.40;15.87;;;16.90;99.90;;;;;;5012522;28;20704;-75
2023/05/22 02:45:58;;;;;;;16.50;15.00;;;16.90;99.90;;;;;;5010761;28;20188;-75
2023/05/22 02:48:24;;;;;;;17.53;15.83;;;16.90;99.90;;;;;;5012649;28;20258;-75
2023/05/22 02:50:50;;;;;;;16.40;14.70;;;16.90;99.90;;;;;;5012685;28;20207;-74
2023/05/22 02:53:16;;;;;;;17.03;15.53;;;17.00;99.90;;;;;;5012835;28;20172;-75
2023/05/22 02:55:42;;;;;;;15.77;14.37;;;17.10;99.90;;;;;;5012870;28;20168;-75
2023/05/22 02:58:11;;;;;;;15.17;13.57;;;17.20;99.90;;;;;;4994601;28;20465;-75
2023/05/22 03:00:37;;;;;;;17.67;15.90;;;17.30;99.90;;;;;;5012395;28;20431;-75
2023/05/22 03:03:03;;;;;;;17.20;15.63;;;17.30;99.90;;;;;;5012835;28;20449;-75
2023/05/22 03:05:30;;;;;;;15.47;14.07;;;17.40;99.90;;;;;;5012452;28;20415;-74
2023/05/22 03:07:56;;;;;;;15.43;13.83;;;17.40;99.90;;;;;;5012535;28;20499;-75
2023/05/22 03:10:21;;;;;;;15.90;14.40;;;17.40;99.90;;;;;;5012896;28;20462;-75
2023/05/22 03:12:47;;;;;;;16.70;15.20;;;17.40;99.90;;;;;;5012850;28;20210;-75
2023/05/22 03:15:13;;;;;;;15.97;14.57;;;17.40;99.90;;;;;;5012162;28;20172;-75
2023/05/22 03:17:38;;;;;;;16.43;14.83;;;17.40;99.90;;;;;;5015315;28;20230;-75
2023/05/22 03:20:05;;;;;;;16.43;14.93;;;17.40;99.90;;;;;;5016387;28;20195;-75
2023/05/22 03:22:31;;;;;;;20.40;18.50;;;17.40;99.90;;;;;;5016530;28;20553;-75
2023/05/22 03:24:57;;;;;;;16.23;14.53;;;17.40;99.90;;;;;;4998477;28;20421;-75
2023/05/22 03:27:22;;;;;;;18.93;16.97;;;17.40;99.90;;;;;;5016538;28;20645;-75
2023/05/22 03:29:48;;;;;;;18.03;16.43;;;17.30;99.90;;;;;;4997880;28;20257;-75
2023/05/22 03:32:13;;;;;;;16.60;15.07;;;17.20;99.90;;;;;;5016154;28;20199;-75
2023/05/22 03:34:39;;;;;;;15.10;13.57;;;17.10;99.90;;;;;;4998467;28;20274;-75
2023/05/22 03:37:04;;;;;;;16.83;15.13;;;17.10;99.90;;;;;;5015964;28;20199;-75
2023/05/22 03:39:30;;;;;;;19.47;17.63;;;17.10;99.90;;;;;;5016045;28;20646;-75
2023/05/22 03:41:55;;;;;;;16.00;14.50;;;17.10;99.90;;;;;;5015943;28;20168;-75
2023/05/22 03:44:21;;;;;;;15.40;14.00;;;17.20;99.90;;;;;;5015628;28;20166;-75
2023/05/22 03:46:46;;;;;;;15.90;14.50;;;17.30;99.90;;;;;;5015992;28;20668;-75
2023/05/22 03:49:12;;;;;;;16.47;14.90;;;17.30;99.90;;;;;;5015880;28;20282;-76
2023/05/22 03:51:38;;;;;;;17.07;15.57;;;17.30;99.90;;;;;;5015998;28;20178;-75
2023/05/22 03:54:04;;;;;;;16.03;14.43;;;17.40;99.90;;;;;;5016820;28;20235;-76
2023/05/22 03:56:29;;;;;;;16.60;15.10;;;17.40;99.90;;;;;;5015329;28;20226;-76
2023/05/22 03:58:55;;;;;;;19.07;17.27;;;17.40;99.90;;;;;;5014786;28;20242;-75
2023/05/22 04:01:20;;;;;;;17.80;16.10;;;17.40;99.90;;;;;;5015717;28;20188;-75
2023/05/22 04:03:46;;;;;;;17.33;15.70;;;17.40;99.90;;;;;;5015377;28;20168;-76
2023/05/22 04:06:12;;;;;;;16.73;15.20;;;17.40;99.90;;;;;;5015387;28;20407;-76
2023/05/22 04:08:38;;;;;;;16.67;15.07;;;17.40;99.90;;;;;;5015557;28;20259;-76
2023/05/22 04:11:04;;;;;;;17.10;15.60;;;17.50;99.90;;;;;;5015420;28;20418;-76
2023/05/22 04:13:30;;;;;;;16.57;15.03;;;17.40;99.90;;;;;;5015184;28;20642;-75
2023/05/22 04:15:56;;;;;;;17.40;15.80;;;17.50;99.90;;;;;;5015063;28;20505;-75
2023/05/22 04:18:21;;;;;;;16.53;15.03;;;17.60;99.90;;;;;;5014978;28;20474;-75
2023/05/22 04:20:50;;;;;;;17.30;15.80;;;17.50;99.90;;;;;;5015067;28;20226;-74
2023/05/22 04:23:16;;;;;;;18.63;16.70;;;17.60;99.90;;;;;;5015470;28;20191;-75
2023/05/22 04:25:42;;;;;;;19.60;17.77;;;17.50;99.90;;;;;;5011126;28;20582;-76
2023/05/22 04:28:08;;;;;;;16.40;14.80;;;17.50;99.90;;;;;;4989749;28;20426;-76
2023/05/22 04:30:35;;;;;;;16.97;15.50;;;17.50;99.90;;;;;;5021419;23;20229;-74
2023/05/22 04:33:04;;;;;;;16.27;14.77;;;17.50;99.90;;;;;;4978507;28;20697;-75
2023/05/22 04:35:30;;;;;;;17.20;15.60;;;17.50;99.90;;;;;;4995990;28;20407;-75
2023/05/22 04:38:00;;;;;;;19.13;17.33;;;17.40;99.90;;;;;;4995817;28;20453;-75
2023/05/22 04:40:28;;;;;;;16.10;14.47;;;17.40;99.90;;;;;;4995812;28;20431;-75
2023/05/22 04:42:53;;;;;;;17.20;15.60;;;17.40;99.90;;;;;;4978467;28;20416;-75
2023/05/22 04:45:24;;;;;;;18.40;16.70;;;17.40;99.90;;;;;;4995207;28;20414;-75
2023/05/22 04:47:51;;;;;;;17.00;15.53;;;17.40;99.90;;;;;;4994173;28;20161;-74
2023/05/22 04:50:17;;;;;;;17.50;15.90;;;17.40;99.90;;;;;;4995832;28;20427;-75
2023/05/22 04:52:43;;;;;;;17.60;15.90;;;17.50;99.90;;;;;;4995628;28;20834;-74
2023/05/22 04:55:10;;;;;;;19.13;17.33;;;17.50;99.90;;;;;;4978364;28;20423;-75
2023/05/22 04:57:37;;;;;;;17.47;15.87;;;17.50;99.90;;;;;;4978091;28;20714;-74
2023/05/22 05:00:04;;;;;;;17.83;16.13;;;17.60;99.90;;;;;;4995122;28;20835;-75
2023/05/22 05:02:30;;;;;;;16.97;15.33;;;17.60;99.90;;;;;;4995552;28;20491;-75
2023/05/22 05:04:55;;;;;;;17.40;15.77;;;17.60;99.90;;;;;;4995706;28;20486;-75
2023/05/22 05:07:22;;;;;;;15.93;14.53;;;17.60;99.90;;;;;;4977920;28;20415;-75
2023/05/22 05:09:48;;;;;;;17.83;16.23;;;17.70;99.90;;;;;;4995204;28;20189;-75
2023/05/22 05:12:15;;;;;;;15.97;14.47;;;17.80;99.90;;;;;;4995571;28;20423;-75
2023/05/22 05:14:40;;;;;;;18.83;17.10;;;17.90;99.90;;;;;;4977517;28;20199;-75
2023/05/22 05:17:06;;;;;;;15.87;14.27;;;17.90;99.90;;;;;;4977562;28;20448;-75
2023/05/22 05:19:31;;;;;;;17.17;15.57;;;18.00;99.90;;;;;;4995243;28;20191;-75
2023/05/22 05:21:57;;;;;;;17.63;15.93;;;18.10;99.90;;;;;;4995490;28;20181;-75
2023/05/22 05:24:22;;;;;;;17.03;15.43;;;18.20;99.90;;;;;;4995709;28;20169;-74
2023/05/22 05:26:49;;;;;;;16.70;15.10;;;18.30;99.90;;;;;;4994635;28;20173;-75
2023/05/22 05:29:14;;;;;;;16.90;15.20;;;18.40;99.90;;;;;;4976578;28;20213;-75
2023/05/22 05:31:40;;;;;;;16.07;14.47;;;18.50;99.90;;;;;;4980658;28;20451;-75
2023/05/22 05:34:05;;;;;;;15.90;14.43;;;18.60;99.90;;;;;;4959567;28;20169;-75
2023/05/22 05:36:31;;;;;;;15.20;13.80;;;18.70;99.90;;;;;;4959200;28;20271;-75
2023/05/22 05:38:57;;;;;;;16.97;15.13;;;18.80;99.90;;;;;;4975688;28;20166;-75
2023/05/22 05:41:23;;;;;;;15.40;13.93;;;19.00;99.90;;;;;;4958718;28;20165;-75
2023/05/22 05:43:51;;;;;;;16.40;13.77;;;19.10;99.90;;;;;;4975622;28;20526;-74
2023/05/22 05:46:17;;;;;;;15.20;13.90;;;19.10;99.90;;;;;;4976105;28;20452;-75
2023/05/22 05:48:42;;;;;;;16.67;15.07;;;19.20;99.90;;;;;;4976488;28;20420;-75
2023/05/22 05:51:08;;;;;;;17.13;15.63;;;19.20;99.90;;;;;;4958572;28;20409;-75
2023/05/22 05:53:35;;;;;;;17.13;15.53;;;19.30;99.90;;;;;;4976389;28;20173;-76
2023/05/22 05:56:02;;;;;;;17.33;15.73;;;19.50;99.90;;;;;;4976731;28;20472;-75
2023/05/22 05:58:27;;;;;;;18.97;16.17;;;19.60;99.90;;;;;;4986797;28;20543;-75
2023/05/22 06:00:53;;;;;;;16.07;14.57;;;19.80;99.90;;;;;;4995586;28;20470;-75
2023/05/22 06:03:19;;;;;;;16.40;14.70;;;20.00;99.90;;;;;;4994803;28;20168;-75
2023/05/22 06:05:45;;;;;;;15.77;14.27;;;20.10;99.90;;;;;;4994854;28;20175;-75
2023/05/22 06:08:12;;;;;;;17.07;15.30;;;20.20;99.90;;;;;;4995017;28;20235;-75
2023/05/22 06:10:38;;;;;;;17.80;16.10;;;20.30;99.90;;;;;;4994954;28;20208;-74
2023/05/22 06:13:03;;;;;;;18.00;16.20;;;20.30;99.90;;;;;;4994560;28;20408;-74
2023/05/22 06:15:30;;;;;;;17.70;16.00;;;19.80;99.90;;;;;;4994168;28;20165;-75
2023/05/22 06:17:55;;;;;;;21.67;17.03;;;19.40;99.90;;;;;;4994656;28;20192;-75
2023/05/22 06:20:23;;;;;;;17.60;15.87;;;19.60;99.90;;;;;;4995664;28;20499;-74
2023/05/22 06:22:49;;;;;;;20.50;17.70;;;19.70;99.90;;;;;;4994660;28;20167;-75
2023/05/22 06:25:15;;;;;;;16.83;15.13;;;19.90;99.90;;;;;;4993814;28;20418;-74
2023/05/22 06:27:41;;;;;;;18.23;16.50;;;20.10;99.90;;;;;;4994197;28;20420;-74
2023/05/22 06:30:07;;;;;;;18.83;16.73;;;19.90;99.90;;;;;;4988485;28;20214;-74
2023/05/22 06:32:33;;;;;;;17.90;16.00;;;19.90;99.90;;;;;;4982816;28;20197;-74
2023/05/22 06:34:59;;;;;;;18.10;16.10;;;19.70;99.90;;;;;;4979891;28;20875;-74
2023/05/22 06:37:24;;;;;;;17.93;16.07;;;19.80;99.90;;;;;;4976861;28;20197;-73
2023/05/22 06:39:50;;;;;;;15.87;14.40;;;20.00;99.90;;;;;;4957189;28;20189;-72
2023/05/22 06:42:15;;;;;;;16.97;15.40;;;20.10;99.90;;;;;;4974849;28;20179;-74
2023/05/22 06:44:41;;;;;;;18.37;16.50;;;20.30;99.90;;;;;;4974851;28;20185;-74
2023/05/22 06:47:07;;;;;;;17.47;15.60;;;20.60;99.90;;;;;;4993670;28;20172;-72
2023/05/22 06:49:33;;;;;;;16.73;15.13;;;20.70;99.90;;;;;;4976488;28;20291;-74
2023/05/22 06:51:58;;;;;;;17.27;15.70;;;20.70;99.90;;;;;;4995809;28;20831;-73
2023/05/22 06:54:27;;;;;;;16.77;15.07;;;20.50;99.90;;;;;;4980713;28;20551;-73
2023/05/22 06:56:53;;;;;;;21.17;16.20;;;20.70;99.90;;;;;;4998313;28;20649;-73
2023/05/22 06:59:19;;;;;;;17.33;15.57;;;20.60;99.90;;;;;;4998213;28;20965;-74
2023/05/22 07:01:45;;;;;;;16.47;14.87;;;20.20;99.90;;;;;;4998486;28;20395;-74
2023/05/22 07:04:12;;;;;;;16.30;14.80;;;20.20;99.90;;;;;;4980914;28;20598;-74
2023/05/22 07:06:40;;;;;;;16.70;14.70;;;20.50;99.90;;;;;;4998691;28;20937;-74
2023/05/22 07:09:06;;;;;;;16.67;15.07;;;20.30;99.90;;;;;;4998079;28;20423;-74
2023/05/22 07:11:32;;;;;;;15.60;14.00;;;20.20;99.90;;;;;;4997975;28;20473;-74
2023/05/22 07:13:57;;;;;;;15.93;14.47;;;20.30;99.90;;;;;;4997614;28;20475;-74
2023/05/22 07:16:24;;;;;;;15.57;14.10;;;20.60;99.90;;;;;;4997662;28;20247;-73
2023/05/22 07:18:50;;;;;;;15.40;14.00;;;20.90;99.90;;;;;;4998006;28;20172;-73
2023/05/22 07:21:15;;;;;;;16.73;15.13;;;21.10;99.90;;;;;;4997740;28;20415;-72
2023/05/22 07:23:41;;;;;;;16.63;15.03;;;21.30;99.90;;;;;;4997560;28;20180;-74
2023/05/22 07:26:07;;;;;;;15.93;14.33;;;21.40;99.90;;;;;;4997515;28;20539;-74
2023/05/22 07:28:32;;;;;;;17.67;14.80;;;21.90;99.90;;;;;;4997259;28;20235;-73
2023/05/22 07:30:58;;;;;;;16.33;14.73;;;22.00;99.90;;;;;;4997274;28;20308;-74
2023/05/22 07:33:24;;;;;;;16.97;15.37;;;22.30;99.90;;;;;;4979990;28;20200;-74
2023/05/22 07:35:50;;;;;;;18.93;17.13;;;22.20;99.90;;;;;;4980323;28;20178;-74
2023/05/22 07:38:16;;;;;;;16.03;14.53;;;22.20;99.90;;;;;;4998358;28;20446;-74
2023/05/22 07:40:42;;;;;;;18.30;16.50;;;22.40;99.90;;;;;;4997598;28;20941;-74
2023/05/22 07:43:07;;;;;;;15.77;14.40;;;22.40;99.90;;;;;;4998150;28;20571;-74
2023/05/22 07:45:33;;;;;;;16.73;15.23;;;22.60;99.90;;;;;;4999061;28;20176;-73
2023/05/22 07:48:00;;;;;;;16.43;14.87;;;22.40;99.90;;;;;;4998671;28;20169;-73
2023/05/22 07:50:26;;;;;;;17.40;15.70;;;22.30;99.90;;;;;;4998325;28;20187;-73
2023/05/22 07:52:52;;;;;;;16.40;14.10;;;22.60;99.90;;;;;;4996627;28;20408;-74
2023/05/22 07:55:17;;;;;;;15.13;13.73;;;23.00;99.90;;;;;;4979992;28;20173;-74
2023/05/22 07:57:43;;;;;;;14.90;13.40;;;23.10;99.90;;;;;;4996575;28;20203;-72
2023/05/22 08:00:11;;;;;;;14.70;13.20;;;23.30;99.90;;;;;;4995858;28;20204;-73
2023/05/22 08:02:37;;;;;;;14.90;13.50;;;23.60;99.90;;;;;;4996679;28;20165;-75
2023/05/22 08:05:03;;;;;;;16.20;14.70;;;23.50;99.90;;;;;;4979000;28;20422;-74
2023/05/22 08:07:29;;;;;;;17.40;14.53;;;23.40;99.90;;;;;;4996830;28;20165;-74
2023/05/22 08:09:54;;;;;;;16.23;14.60;;;23.30;99.90;;;;;;4996273;28;20477;-74
2023/05/22 08:12:20;;;;;;;14.83;13.33;;;23.60;99.90;;;;;;4996511;28;20413;-74
2023/05/22 08:14:45;;;;;;;15.50;13.93;;;23.80;99.90;;;;;;4995898;28;20223;-75
2023/05/22 08:17:11;;;;;;;15.33;13.70;;;23.90;99.90;;;;;;4996291;28;20193;-74
2023/05/22 08:19:36;;;;;;;16.30;14.60;;;23.90;99.90;;;;;;4996246;28;20185;-73
2023/05/22 08:22:02;;;;;;;16.43;13.10;;;23.90;99.90;;;;;;4996566;28;20204;-74
2023/05/22 08:24:29;;;;;;;14.30;12.97;;;24.20;99.90;;;;;;4996401;28;20161;-75
2023/05/22 08:26:57;;;;;;;15.73;14.03;;;24.40;99.90;;;;;;4979075;28;20177;-74
2023/05/22 08:29:22;;;;;;;16.17;14.37;;;24.40;99.90;;;;;;4994970;28;20479;-74
2023/05/22 08:31:48;;;;;;;16.10;13.70;;;24.60;99.90;;;;;;4994207;28;20408;-75
2023/05/22 08:34:13;;;;;;;13.53;12.23;;;24.60;99.90;;;;;;4978234;28;20608;-73
2023/05/22 08:36:39;;;;;;;14.57;13.10;;;24.90;99.90;;;;;;4976782;28;20175;-74
2023/05/22 08:39:06;;;;;;;15.90;14.40;;;25.00;99.90;;;;;;4976777;28;20185;-74
2023/05/22 08:41:31;;;;;;;16.83;15.07;;;24.80;99.90;;;;;;4976164;28;20716;-74
2023/05/22 08:43:57;;;;;;;15.50;14.20;;;24.90;99.90;;;;;;4975692;28;20437;-73
2023/05/22 08:46:27;;;;;;;14.67;13.20;;;25.10;99.90;;;;;;4976054;28;20664;-73
2023/05/22 08:48:57;;;;;;;14.43;12.57;;;25.30;99.90;;;;;;4976129;28;20197;-73
2023/05/22 08:51:27;;;;;;;13.73;12.43;;;25.40;99.90;;;;;;4976447;28;20408;-73
2023/05/22 08:53:55;;;;;;;13.10;11.80;;;25.40;99.90;;;;;;4976672;28;20412;-74
2023/05/22 08:56:21;;;;;;;18.23;12.50;;;25.60;99.90;;;;;;4995872;28;20769;-73
2023/05/22 08:58:48;;;;;;;13.07;11.87;;;25.40;99.90;;;;;;4995120;28;20443;-74
2023/05/22 09:01:15;;;;;;;13.53;12.10;;;25.60;99.90;;;;;;4978200;28;20208;-74
2023/05/22 09:03:41;;;;;;;13.10;11.90;;;25.70;99.90;;;;;;4978148;28;20469;-74
2023/05/22 09:06:09;;;;;;;17.10;15.27;;;25.40;99.90;;;;;;4995398;28;20954;-74
2023/05/22 09:08:36;;;;;;;14.87;13.47;;;25.70;99.90;;;;;;4977794;28;20710;-74
2023/05/22 09:11:02;;;;;;;16.20;14.67;;;26.00;99.90;;;;;;4995264;28;20428;-74
2023/05/22 09:13:29;;;;;;;14.80;13.30;;;25.60;99.90;;;;;;4994787;28;20419;-74
2023/05/22 09:15:59;;;;;;;13.87;12.57;;;25.60;99.90;;;;;;4994855;28;20160;-75
2023/05/22 09:18:28;;;;;;;14.10;12.20;;;25.70;99.90;;;;;;4995202;28;20443;-74
2023/05/22 09:20:56;;;;;;;16.17;14.53;;;25.80;99.90;;;;;;4977743;28;20483;-75
2023/05/22 09:23:24;;;;;;;18.67;13.73;;;25.80;99.90;;;;;;4995376;28;20487;-73
2023/05/22 09:25:54;;;;;;;14.20;13.00;;;25.80;99.90;;;;;;4995023;28;20568;-74
2023/05/22 09:28:20;;;;;;;16.53;14.87;;;26.10;99.90;;;;;;4977445;28;20424;-73
2023/05/22 09:30:51;;;;;;;14.73;13.17;;;25.90;99.90;;;;;;4994751;28;20495;-74
2023/05/22 09:33:17;;;;;;;13.10;11.80;;;25.70;99.90;;;;;;4995268;28;20418;-74
2023/05/22 09:35:45;;;;;;;14.60;13.20;;;25.90;99.90;;;;;;4994680;28;20414;-75
2023/05/22 09:38:12;;;;;;;15.33;13.87;;;26.00;99.90;;;;;;4994623;28;20546;-74
2023/05/22 09:40:39;;;;;;;16.33;14.83;;;26.40;99.90;;;;;;4994542;28;20930;-74
2023/05/22 09:43:08;;;;;;;14.07;12.77;;;26.20;99.90;;;;;;4994807;28;20466;-75
2023/05/22 09:45:35;;;;;;;14.87;13.23;;;26.10;99.90;;;;;;4994441;28;20500;-75
2023/05/22 09:48:01;;;;;;;13.67;12.47;;;26.00;99.90;;;;;;4994867;28;20870;-75
2023/05/22 09:50:27;;;;;;;14.10;12.80;;;26.10;99.90;;;;;;4994600;28;20428;-75
2023/05/22 09:52:53;;;;;;;14.40;13.20;;;26.50;99.90;;;;;;4994312;28;20423;-75
2023/05/22 09:55:22;;;;;;;15.77;14.00;;;26.10;99.90;;;;;;4994289;28;20181;-75
2023/05/22 09:57:50;;;;;;;14.13;12.67;;;26.00;99.90;;;;;;4994006;28;20958;-75
2023/05/22 10:00:18;;;;;;;12.50;11.40;;;26.40;99.90;;;;;;4974245;28;20468;-74
2023/05/22 10:03:02;;;;;;;12.73;11.53;;;26.30;99.90;;;;;;4974698;28;20431;-75
2023/05/22 10:05:30;;;;;;;13.27;11.97;;;26.10;99.90;;;;;;4975211;28;20392;-75
2023/05/22 10:08:01;;;;;;;12.63;11.53;;;26.00;99.90;;;;;;4975032;28;20401;-73
2023/05/22 10:10:27;;;;;;;15.03;13.43;;;25.90;99.90;;;;;;4974809;28;20805;-74
2023/05/22 10:12:56;;;;;;;15.23;13.63;;;26.00;99.90;;;;;;4974596;28;20412;-74
2023/05/22 10:15:22;;;;;;;15.77;12.10;;;26.10;99.90;;;;;;4973965;28;20296;-74
2023/05/22 10:17:48;;;;;;;12.93;11.20;;;26.20;99.90;;;;;;4974412;28;21034;-74
2023/05/22 10:20:15;;;;;;;13.13;11.83;;;26.30;99.90;;;;;;4974428;28;20570;-73
2023/05/22 10:22:41;;;;;;;12.20;11.00;;;26.70;99.90;;;;;;4974710;28;20412;-74
2023/05/22 10:25:07;;;;;;;14.27;12.43;;;26.60;99.90;;;;;;4974818;28;20412;-75
2023/05/22 10:27:33;;;;;;;13.43;12.23;;;26.70;99.90;;;;;;4957188;28;20460;-74
2023/05/22 10:30:14;;;;;;;13.30;12.00;;;26.60;99.90;;;;;;4974825;28;20504;-74
2023/05/22 10:32:46;;;;;;;14.33;12.60;;;26.20;99.90;;;;;;4994928;28;20207;-74
2023/05/22 10:35:30;;;;;;;12.73;11.60;;;26.00;99.90;;;;;;4976826;28;20416;-73
2023/05/22 10:38:04;;;;;;;13.77;11.97;;;26.00;99.90;;;;;;4993934;28;20490;-73
2023/05/22 10:40:32;;;;;;;11.80;10.70;;;26.00;99.90;;;;;;4995453;28;20419;-74
2023/05/22 10:43:00;;;;;;;13.17;11.97;;;26.40;99.90;;;;;;4995455;28;20404;-74
2023/05/22 10:45:27;;;;;;;11.40;10.43;;;26.70;99.90;;;;;;4989007;28;20409;-74
2023/05/22 10:48:11;;;;;;;11.93;10.93;;;26.60;99.90;;;;;;4976315;28;20838;-74
2023/05/22 10:50:38;;;;;;;13.17;12.10;;;26.60;99.90;;;;;;4957218;28;20433;-74
2023/05/22 10:53:25;;;;;;;15.30;12.10;;;26.50;99.90;;;;;;4957682;28;20428;-74
2023/05/22 10:55:56;;;;;;;11.97;10.90;;;26.40;99.90;;;;;;4975589;28;20401;-74
2023/05/22 10:58:27;;;;;;;12.90;11.50;;;26.40;99.90;;;;;;4961898;28;20510;-74
2023/05/22 11:01:19;;;;;;;14.57;13.10;;;26.70;99.90;;;;;;4977292;28;20923;-74
2023/05/22 11:03:58;;;;;;;14.73;12.23;;;27.00;99.90;;;;;;4994839;28;20438;-75
2023/05/22 11:06:37;;;;;;;14.67;13.20;;;26.90;99.90;;;;;;4994178;28;20846;-74
2023/05/22 11:09:19;;;;;;;12.37;11.23;;;26.60;99.90;;;;;;4994990;28;20431;-73
2023/05/22 11:11:45;;;;;;;12.83;11.53;;;27.00;99.90;;;;;;4978697;28;20407;-74
2023/05/22 11:14:15;;;;;;;13.27;12.07;;;27.20;99.90;;;;;;4995291;28;20412;-74
2023/05/22 11:16:40;;;;;;;13.50;12.13;;;27.20;99.80;;;;;;4995922;28;20417;-74
2023/05/22 11:19:07;;;;;;;14.07;12.80;;;27.40;99.90;;;;;;4994731;28;20424;-74
2023/05/22 11:21:43;;;;;;;12.13;10.97;;;27.70;99.40;;;;;;4993812;28;20170;-74
2023/05/22 11:24:10;;;;;;;14.53;12.20;;;28.80;98.20;;;;;;4993900;28;20407;-75
2023/05/22 11:26:35;;;;;;;13.23;12.00;;;30.50;97.20;;;;;;4994013;28;20404;-75
2023/05/22 11:29:01;;;;;;;13.03;11.83;;;31.20;94.70;;;;;;4993337;28;20519;-75
2023/05/22 11:31:28;;;;;;;12.90;11.70;;;30.50;96.20;;;;;;4976012;28;20161;-73
2023/05/22 11:33:54;;;;;;;12.17;10.90;;;31.20;94.70;;;;;;4976260;28;20702;-74
2023/05/22 11:36:21;;;;;;;11.50;10.60;;;31.20;94.70;;;;;;4993461;28;20404;-75
2023/05/22 11:38:46;;;;;;;11.30;10.40;;;31.30;94.30;;;;;;4996167;28;20195;-73
2023/05/22 11:41:13;;;;;;;11.90;10.90;;;31.60;93.30;;;;;;4997668;28;20408;-75
2023/05/22 11:43:41;;;;;;;11.83;10.67;;;30.60;93.60;;;;;;4996978;28;20253;-75
2023/05/22 11:46:11;;;;;;;10.63;9.70;;;30.30;94.30;;;;;;4997131;28;20404;-75
2023/05/22 11:48:43;;;;;;;10.20;9.27;;;31.10;93.10;;;;;;4997475;28;20408;-73
2023/05/22 11:51:09;;;;;;;10.50;9.60;;;31.40;92.20;;;;;;4996694;28;20968;-75
2023/05/22 11:53:35;;;;;;;10.30;9.50;;;32.80;90.90;;;;;;4978220;28;20416;-75
2023/05/22 11:56:03;;;;;;;11.37;10.37;;;32.80;86.70;;;;;;4978753;28;20411;-75
2023/05/22 11:58:29;;;;;;;11.07;10.07;;;32.80;84.20;;;;;;4996087;28;20275;-75
2023/05/22 12:01:02;;;;;;;9.80;9.00;;;32.40;84.20;;;;;;4996690;28;20424;-75
2023/05/22 12:03:32;;;;;;;10.27;9.23;;;33.20;82.90;;;;;;4996502;28;20938;-74
2023/05/22 12:05:57;;;;;;;10.43;9.37;;;33.50;81.80;;;;;;4978699;28;20396;-74
2023/05/22 12:08:27;;;;;;;9.33;8.53;;;33.30;80.70;;;;;;4996099;28;20402;-75
2023/05/22 12:10:53;;;;;;;8.73;8.03;;;33.20;77.40;;;;;;4978557;28;20284;-75
2023/05/22 12:13:27;;;;;;;9.90;9.00;;;33.40;75.40;;;;;;4996250;28;20466;-73
2023/05/22 12:15:56;;;;;;;9.67;8.70;;;34.10;73.90;;;;;;4995805;28;20388;-75
2023/05/22 12:18:21;;;;;;;10.70;9.80;;;34.50;75.30;;;;;;4995945;28;20538;-74
2023/05/22 12:20:53;;;;;;;10.07;9.10;;;32.80;80.00;;;;;;4995847;28;20479;-75
2023/05/22 12:23:23;;;;;;;11.07;10.07;;;32.00;82.60;;;;;;4978479;28;20165;-73
2023/05/22 12:25:57;;;;;;;10.87;9.83;;;32.30;82.80;;;;;;4995794;28;20458;-74
2023/05/22 12:28:22;;;;;;;12.10;11.00;;;32.90;82.40;;;;;;4996136;28;20949;-75
2023/05/22 12:30:52;;;;;;;10.77;9.87;;;33.90;80.40;;;;;;4981799;28;20491;-74